createdAt,value
2018-02-10T00:02:35.784Z,48.8
2018-02-10T00:19:22.625Z,48.4
2018-02-10T00:36:09.307Z,48.4
2018-02-10T00:52:56.472Z,48.4
2018-02-10T01:09:42.826Z,48.4
2018-02-10T01:26:29.253Z,48.0
2018-02-10T01:43:16.995Z,47.2
2018-02-10T02:00:03.169Z,47.2
2018-02-10T02:16:49.567Z,47.2
2018-02-10T02:33:36.258Z,47.2
2018-02-10T02:50:22.762Z,47.2
2018-02-10T03:07:09.468Z,46.8
2018-02-10T03:23:56.969Z,46.8
2018-02-10T03:40:42.709Z,46.8
2018-02-10T03:57:29.578Z,46.4
2018-02-10T04:14:16.241Z,46.4
2018-02-10T04:31:03.150Z,46.4
2018-02-10T04:47:49.471Z,46.4
2018-02-10T05:04:36.498Z,46.4
2018-02-10T05:21:22.846Z,46.4
2018-02-10T05:38:09.342Z,45.6
2018-02-10T05:54:56.291Z,46.0
2018-02-10T06:11:43.583Z,46.0
2018-02-10T06:28:30.175Z,46.0
2018-02-10T06:45:16.951Z,45.2
2018-02-10T07:02:03.549Z,45.2
2018-02-10T07:18:50.570Z,45.2
2018-02-10T07:35:37.789Z,45.2
2018-02-10T07:52:24.724Z,45.6
2018-02-10T08:09:11.908Z,45.2
2018-02-10T08:25:58.782Z,45.6
2018-02-10T08:42:45.673Z,45.6
2018-02-10T08:59:32.653Z,45.6
2018-02-10T09:16:19.927Z,44.4
2018-02-10T09:33:06.733Z,44.4
2018-02-10T09:49:53.609Z,44.4
2018-02-10T10:06:40.209Z,44.4
2018-02-10T10:23:27.620Z,44.4
2018-02-10T10:40:14.892Z,44.4
2018-02-10T10:57:00.917Z,46.4
2018-02-10T11:13:48.508Z,47.2
2018-02-10T11:30:34.703Z,47.2
2018-02-10T11:47:22.683Z,47.2
2018-02-10T12:04:09.307Z,47.2
2018-02-10T12:20:56.242Z,48.0
2018-02-10T12:37:42.913Z,47.6
2018-02-10T12:54:29.970Z,47.6
2018-02-10T13:11:18.271Z,47.6
2018-02-10T13:28:04.283Z,47.6
2018-02-10T13:44:52.484Z,48.0
2018-02-10T14:01:38.593Z,48.0
2018-02-10T14:18:26.382Z,48.0
2018-02-10T14:35:12.688Z,48.0
2018-02-10T14:51:59.721Z,48.8
2018-02-10T15:05:25.617Z,50.8
2018-02-10T15:22:12.452Z,52.0
2018-02-10T15:38:59.332Z,53.6
2018-02-10T15:55:45.812Z,55.2
2018-02-10T16:12:32.280Z,55.2
2018-02-10T16:29:19.230Z,56.0
2018-02-10T16:46:06.500Z,56.4
2018-02-10T17:02:52.769Z,57.2
2018-02-10T17:19:39.678Z,58.0
2018-02-10T17:36:26.603Z,59.2
2018-02-10T17:53:13.472Z,60.4
2018-02-10T18:10:01.255Z,60.8
2018-02-10T18:26:47.429Z,61.2
2018-02-10T18:43:34.623Z,61.2
2018-02-10T19:00:21.493Z,61.6
2018-02-10T19:17:08.215Z,61.6
2018-02-10T19:33:55.451Z,61.6
2018-02-10T19:50:42.395Z,61.6
2018-02-10T20:07:29.070Z,61.6
2018-02-10T20:24:16.122Z,61.6
2018-02-10T20:41:03.421Z,61.6
2018-02-10T20:57:50.816Z,61.6
2018-02-10T21:14:39.195Z,61.6
2018-02-10T21:31:24.672Z,61.6
2018-02-10T21:48:11.544Z,61.6
2018-02-10T22:04:58.534Z,61.6
2018-02-10T22:21:45.315Z,61.6
2018-02-10T22:38:32.057Z,61.6
2018-02-10T22:55:18.815Z,61.6
2018-02-10T23:12:05.286Z,61.6
2018-02-10T23:28:51.899Z,61.2
2018-02-10T23:45:38.828Z,61.2
